createdAt,value
2022-12-26T00:01:06.765Z,9.10
2022-12-26T00:03:33.927Z,8.62
2022-12-26T00:06:01.527Z,8.91
2022-12-26T00:08:28.562Z,8.50
2022-12-26T00:10:55.645Z,8.90
2022-12-26T00:13:40.262Z,8.64
2022-12-26T00:16:12.312Z,8.82
2022-12-26T00:18:40.310Z,8.58
2022-12-26T00:21:09.055Z,8.53
2022-12-26T00:23:36.776Z,8.75
2022-12-26T00:26:15.598Z,8.72
2022-12-26T00:28:43.654Z,8.82
2022-12-26T00:31:18.870Z,8.85
2022-12-26T00:33:46.499Z,8.68
2022-12-26T00:36:16.550Z,9.15
2022-12-26T00:38:44.694Z,9.09
2022-12-26T00:41:13.707Z,8.90
2022-12-26T00:43:41.680Z,9.04
2022-12-26T00:46:09.111Z,8.91
2022-12-26T00:48:36.184Z,8.62
2022-12-26T00:51:03.351Z,9.19
2022-12-26T00:53:30.647Z,8.61
2022-12-26T00:55:57.961Z,7.77
2022-12-26T00:58:27.466Z,7.88
2022-12-26T01:00:55.324Z,7.99
2022-12-26T01:03:22.740Z,8.50
2022-12-26T01:05:51.680Z,8.14
2022-12-26T01:08:24.099Z,8.00
2022-12-26T01:10:52.433Z,8.01
2022-12-26T01:13:20.043Z,8.05
2022-12-26T01:15:55.367Z,8.39
2022-12-26T01:18:22.522Z,8.12
2022-12-26T01:20:50.191Z,8.27
2022-12-26T01:23:17.699Z,7.55
2022-12-26T01:26:15.156Z,7.93
2022-12-26T01:28:31.930Z,8.12
2022-12-26T01:31:11.566Z,8.16
2022-12-26T01:33:39.211Z,7.42
2022-12-26T01:36:07.597Z,7.45
2022-12-26T01:38:35.214Z,7.74
2022-12-26T01:41:28.346Z,7.28
2022-12-26T01:44:02.673Z,7.72
2022-12-26T01:46:44.137Z,7.40
2022-12-26T01:49:29.452Z,7.58
2022-12-26T01:52:07.313Z,7.39
2022-12-26T01:54:42.340Z,7.49
2022-12-26T01:57:21.251Z,7.63
2022-12-26T01:59:50.072Z,7.57
2022-12-26T02:02:19.245Z,7.58
2022-12-26T02:05:07.841Z,7.48
2022-12-26T02:07:37.641Z,7.73
2022-12-26T02:10:07.901Z,7.74
2022-12-26T02:12:38.685Z,7.39
2022-12-26T02:15:17.729Z,7.24
2022-12-26T02:17:45.299Z,7.60
2022-12-26T02:20:28.979Z,7.53
2022-12-26T02:23:04.919Z,7.53
2022-12-26T02:25:55.753Z,7.33
2022-12-26T02:28:35.722Z,7.77
2022-12-26T02:31:21.870Z,7.60
2022-12-26T02:33:51.524Z,7.75
2022-12-26T02:36:39.820Z,7.95
2022-12-26T02:39:47.697Z,7.59
2022-12-26T02:42:29.042Z,7.28
2022-12-26T02:45:22.647Z,7.57
2022-12-26T02:48:28.088Z,7.56
2022-12-26T02:51:23.198Z,7.77
2022-12-26T02:54:20.671Z,8.06
2022-12-26T02:57:12.645Z,8.05
2022-12-26T03:00:30.408Z,8.17
2022-12-26T03:03:22.274Z,7.90
2022-12-26T03:06:12.441Z,8.14
2022-12-26T03:09:11.681Z,7.84
2022-12-26T03:12:00.454Z,7.56
2022-12-26T03:14:31.089Z,7.93
2022-12-26T03:17:21.602Z,8.09
2022-12-26T03:20:03.489Z,8.32
2022-12-26T03:22:58.469Z,8.31
2022-12-26T03:25:43.897Z,7.72
2022-12-26T03:28:14.024Z,8.00
2022-12-26T03:30:50.932Z,7.72
2022-12-26T03:33:39.716Z,7.59
2022-12-26T03:36:08.669Z,7.69
2022-12-26T03:38:51.570Z,7.88
2022-12-26T03:41:55.481Z,8.47
2022-12-26T03:45:01.089Z,8.32
2022-12-26T03:48:15.170Z,8.40
2022-12-26T03:51:06.334Z,7.94
2022-12-26T03:54:15.000Z,8.15
2022-12-26T03:57:13.119Z,8.33
2022-12-26T04:00:18.184Z,8.78
2022-12-26T04:03:07.093Z,8.81
2022-12-26T04:05:56.216Z,8.93
2022-12-26T04:08:48.885Z,8.61
2022-12-26T04:11:38.163Z,8.11
2022-12-26T04:14:39.186Z,8.39
2022-12-26T04:17:50.031Z,8.07
2022-12-26T04:20:33.863Z,8.38
2022-12-26T04:23:47.461Z,7.79
2022-12-26T04:27:14.170Z,7.77
2022-12-26T04:30:00.586Z,7.44
2022-12-26T04:33:02.819Z,7.79
2022-12-26T04:35:54.040Z,7.86
2022-12-26T04:38:46.171Z,8.29
2022-12-26T04:41:33.835Z,7.57
2022-12-26T04:44:08.684Z,8.27
2022-12-26T04:46:39.309Z,8.23
2022-12-26T04:49:27.020Z,7.76
2022-12-26T04:51:56.511Z,7.66
2022-12-26T04:54:24.185Z,7.50
2022-12-26T04:56:51.200Z,7.07
2022-12-26T04:59:18.807Z,7.37
2022-12-26T05:02:04.327Z,7.57
2022-12-26T05:04:49.722Z,7.27
2022-12-26T05:07:49.216Z,7.00
2022-12-26T05:10:21.289Z,7.18
2022-12-26T05:12:48.555Z,6.99
2022-12-26T05:15:16.523Z,7.33
2022-12-26T05:18:02.812Z,7.41
2022-12-26T05:20:51.621Z,7.56
2022-12-26T05:23:39.874Z,7.26
2022-12-26T05:26:31.284Z,7.01
2022-12-26T05:29:00.571Z,7.00
2022-12-26T05:31:34.607Z,7.27
2022-12-26T05:34:11.071Z,7.38
2022-12-26T05:36:41.765Z,6.77
2022-12-26T05:39:09.417Z,6.74
2022-12-26T05:41:38.357Z,6.52
2022-12-26T05:44:05.916Z,6.83
2022-12-26T05:46:33.854Z,6.73
2022-12-26T05:49:03.282Z,6.90
2022-12-26T05:51:30.289Z,7.17
2022-12-26T05:53:57.286Z,6.88
2022-12-26T05:56:24.907Z,7.12
2022-12-26T05:58:56.476Z,6.79
2022-12-26T06:01:26.124Z,7.26
2022-12-26T06:03:57.429Z,7.12
2022-12-26T06:06:27.207Z,7.72
2022-12-26T06:08:55.685Z,7.65
2022-12-26T06:11:23.648Z,7.01
2022-12-26T06:13:50.566Z,6.64
2022-12-26T06:16:19.028Z,7.46
2022-12-26T06:18:47.046Z,7.56
2022-12-26T06:21:19.635Z,7.37
2022-12-26T06:23:47.273Z,7.67
2022-12-26T06:26:14.648Z,7.72
2022-12-26T06:28:43.707Z,7.29
2022-12-26T06:31:21.304Z,7.00
2022-12-26T06:33:50.953Z,7.37
2022-12-26T06:36:20.153Z,7.30
2022-12-26T06:38:47.125Z,7.57
2022-12-26T06:41:17.787Z,7.09
2022-12-26T06:43:45.577Z,6.98
2022-12-26T06:46:18.454Z,7.57
2022-12-26T06:48:46.137Z,7.50
2022-12-26T06:51:22.130Z,7.59
2022-12-26T06:53:50.815Z,7.92
2022-12-26T06:56:26.173Z,7.74
2022-12-26T06:58:58.573Z,8.03
2022-12-26T07:01:28.129Z,8.35
2022-12-26T07:03:55.932Z,8.32
2022-12-26T07:06:30.528Z,8.54
2022-12-26T07:09:03.636Z,8.61
2022-12-26T07:11:35.878Z,8.87
2022-12-26T07:14:03.587Z,8.13
2022-12-26T07:16:31.171Z,9.19
2022-12-26T07:18:58.988Z,9.34
2022-12-26T07:21:26.750Z,9.68
2022-12-26T07:23:54.749Z,9.37
2022-12-26T07:26:22.869Z,9.57
2022-12-26T07:28:53.618Z,9.00
2022-12-26T07:31:21.641Z,9.57
2022-12-26T07:33:55.491Z,9.86
2022-12-26T07:36:23.786Z,10.39
2022-12-26T07:38:51.531Z,10.78
2022-12-26T07:41:39.014Z,10.52
2022-12-26T07:44:06.761Z,10.70
2022-12-26T07:46:34.468Z,10.76
2022-12-26T07:49:02.091Z,11.22
2022-12-26T07:51:29.414Z,10.42
2022-12-26T07:53:56.708Z,11.02
2022-12-26T07:56:23.631Z,9.88
2022-12-26T07:58:54.147Z,9.84
2022-12-26T08:01:22.349Z,9.25
2022-12-26T08:03:50.448Z,9.74
2022-12-26T08:06:19.096Z,9.62
2022-12-26T08:08:51.181Z,9.54
2022-12-26T08:11:22.551Z,9.82
2022-12-26T08:13:50.141Z,10.07
2022-12-26T08:16:17.971Z,9.86
2022-12-26T08:18:45.442Z,9.49
2022-12-26T08:21:13.189Z,9.46
2022-12-26T08:23:40.712Z,9.60
2022-12-26T08:26:09.836Z,10.09
2022-12-26T08:28:37.302Z,9.81
2022-12-26T08:31:08.960Z,10.05
2022-12-26T08:33:36.163Z,10.26
2022-12-26T08:36:04.666Z,10.83
2022-12-26T08:38:33.740Z,10.46
2022-12-26T08:41:02.205Z,10.91
2022-12-26T08:43:45.413Z,10.28
2022-12-26T08:46:16.683Z,10.22
2022-12-26T08:48:45.221Z,10.30
2022-12-26T08:51:15.612Z,9.99
2022-12-26T08:53:42.808Z,10.00
2022-12-26T08:56:14.212Z,10.16
2022-12-26T08:58:44.600Z,9.48
2022-12-26T09:01:27.459Z,9.52
2022-12-26T09:03:56.502Z,9.82
2022-12-26T09:06:24.322Z,9.62
2022-12-26T09:08:52.273Z,9.25
2022-12-26T09:11:27.260Z,9.42
2022-12-26T09:13:55.678Z,9.36
2022-12-26T09:16:26.377Z,9.45
2022-12-26T09:18:59.444Z,9.63
2022-12-26T09:21:29.199Z,10.24
2022-12-26T09:24:00.864Z,10.20
2022-12-26T09:26:29.316Z,9.78
2022-12-26T09:28:57.259Z,10.41
2022-12-26T09:31:27.225Z,10.17
2022-12-26T09:33:54.265Z,10.69
2022-12-26T09:36:24.448Z,10.54
2022-12-26T09:38:51.823Z,10.67
2022-12-26T09:41:42.407Z,10.65
2022-12-26T09:44:47.809Z,10.55
2022-12-26T09:47:35.158Z,10.83
2022-12-26T09:50:05.368Z,11.71
2022-12-26T09:52:46.654Z,11.72
2022-12-26T09:55:36.994Z,12.22
2022-12-26T09:58:24.709Z,12.65
2022-12-26T10:01:01.404Z,12.79
2022-12-26T10:03:29.148Z,12.50
2022-12-26T10:06:02.231Z,12.89
2022-12-26T10:08:49.352Z,13.25
2022-12-26T10:11:32.705Z,13.35
2022-12-26T10:14:04.145Z,13.69
2022-12-26T10:16:33.953Z,13.90
2022-12-26T10:19:10.202Z,14.23
2022-12-26T10:21:53.369Z,14.53
2022-12-26T10:24:26.343Z,14.81
2022-12-26T10:27:00.664Z,14.89
2022-12-26T10:29:34.059Z,15.21
2022-12-26T10:32:05.479Z,15.28
2022-12-26T10:34:47.748Z,15.44
2022-12-26T10:37:24.488Z,15.49
2022-12-26T10:40:09.959Z,15.60
2022-12-26T10:42:38.308Z,15.69
2022-12-26T10:45:17.635Z,15.95
2022-12-26T10:47:47.270Z,16.07
2022-12-26T10:50:27.698Z,16.18
2022-12-26T10:52:56.022Z,16.25
2022-12-26T10:55:31.789Z,16.47
2022-12-26T10:58:15.416Z,16.61
2022-12-26T11:00:42.551Z,16.54
2022-12-26T11:03:15.392Z,17.02
2022-12-26T11:06:09.145Z,16.93
2022-12-26T11:08:47.804Z,17.13
2022-12-26T11:11:25.000Z,17.25
2022-12-26T11:14:02.098Z,16.97
2022-12-26T11:16:32.581Z,17.16
2022-12-26T11:18:59.809Z,17.12
2022-12-26T11:21:32.458Z,17.24
2022-12-26T11:24:18.875Z,17.46
2022-12-26T11:26:46.811Z,17.33
2022-12-26T11:29:26.502Z,17.36
2022-12-26T11:32:02.935Z,17.73
2022-12-26T11:34:34.689Z,17.77
2022-12-26T11:37:04.208Z,17.84
2022-12-26T11:39:35.275Z,17.66
2022-12-26T11:42:10.377Z,17.72
2022-12-26T11:44:41.361Z,17.75
2022-12-26T11:47:13.345Z,17.74
2022-12-26T11:49:50.879Z,17.69
2022-12-26T11:52:53.166Z,17.83
2022-12-26T11:55:23.003Z,18.10
2022-12-26T11:58:09.106Z,18.13
2022-12-26T12:00:37.434Z,18.36
2022-12-26T12:03:13.071Z,18.68
2022-12-26T12:06:07.851Z,18.87
2022-12-26T12:09:06.318Z,18.92
2022-12-26T12:11:47.845Z,19.17
2022-12-26T12:14:52.670Z,19.12
2022-12-26T12:17:43.281Z,19.13
2022-12-26T12:20:10.211Z,19.02
2022-12-26T12:22:52.338Z,19.34
2022-12-26T12:25:54.393Z,19.31
2022-12-26T12:29:01.416Z,19.17
2022-12-26T12:31:28.365Z,18.91
2022-12-26T12:34:18.335Z,19.28
2022-12-26T12:37:27.651Z,19.12
2022-12-26T12:40:34.134Z,18.87
2022-12-26T12:43:20.226Z,19.18
2022-12-26T12:46:07.069Z,19.25
2022-12-26T12:49:03.908Z,19.30
2022-12-26T12:51:44.502Z,19.21
2022-12-26T12:54:45.756Z,19.10
2022-12-26T12:57:20.143Z,19.39
2022-12-26T13:00:13.946Z,19.24
2022-12-26T13:03:01.791Z,19.08
2022-12-26T13:06:03.885Z,19.21
2022-12-26T13:09:14.226Z,19.26
2022-12-26T13:11:56.715Z,18.95
2022-12-26T13:14:37.223Z,18.98
2022-12-26T13:17:13.326Z,18.71
2022-12-26T13:20:06.341Z,18.88
2022-12-26T13:23:04.550Z,18.72
2022-12-26T13:25:37.344Z,18.79
2022-12-26T13:28:12.128Z,18.91
2022-12-26T13:30:39.891Z,18.79
2022-12-26T13:33:07.119Z,18.87
2022-12-26T13:35:55.465Z,18.83
2022-12-26T13:38:24.667Z,18.66
2022-12-26T13:41:20.539Z,18.49
2022-12-26T13:44:02.286Z,18.66
2022-12-26T13:46:53.783Z,18.32
2022-12-26T13:49:37.391Z,18.23
2022-12-26T13:52:19.439Z,18.27
2022-12-26T13:54:50.896Z,18.37
2022-12-26T13:57:36.859Z,18.26
2022-12-26T14:00:07.198Z,18.24
2022-12-26T14:03:18.087Z,17.98
2022-12-26T14:05:40.032Z,18.04
2022-12-26T14:08:10.517Z,17.68
2022-12-26T14:10:55.988Z,17.49
2022-12-26T14:14:00.054Z,17.59
2022-12-26T14:16:45.602Z,17.73
2022-12-26T14:19:37.460Z,16.99
2022-12-26T14:22:26.055Z,15.46
2022-12-26T14:25:31.509Z,15.53
2022-12-26T14:28:22.167Z,15.51
2022-12-26T14:30:55.238Z,15.87
2022-12-26T14:33:54.513Z,16.06
2022-12-26T14:36:27.357Z,16.14
2022-12-26T14:39:10.463Z,16.09
2022-12-26T14:42:25.728Z,15.89
2022-12-26T14:44:58.123Z,15.43
2022-12-26T14:47:47.220Z,15.34
2022-12-26T14:50:32.743Z,15.51
2022-12-26T14:53:30.584Z,15.60
2022-12-26T14:56:14.442Z,15.61
2022-12-26T14:58:45.847Z,15.61
2022-12-26T15:01:17.442Z,15.65
2022-12-26T15:04:07.641Z,15.63
2022-12-26T15:06:46.618Z,15.72
2022-12-26T15:09:38.129Z,15.63
2022-12-26T15:12:05.950Z,15.64
2022-12-26T15:14:58.041Z,15.41
2022-12-26T15:17:51.152Z,15.27
2022-12-26T15:20:37.017Z,15.30
2022-12-26T15:23:19.462Z,14.94
2022-12-26T15:26:08.094Z,14.48
2022-12-26T15:28:56.879Z,14.58
2022-12-26T15:31:36.884Z,13.74
2022-12-26T15:34:32.044Z,14.48
2022-12-26T15:37:03.299Z,13.74
2022-12-26T15:39:56.664Z,14.09
2022-12-26T15:42:48.066Z,14.30
2022-12-26T15:45:33.697Z,14.28
2022-12-26T15:48:25.624Z,13.82
2022-12-26T15:50:58.024Z,13.91
2022-12-26T15:54:00.342Z,13.62
2022-12-26T15:56:36.304Z,13.78
2022-12-26T15:59:09.282Z,13.94
2022-12-26T16:01:45.621Z,13.68
2022-12-26T16:04:21.253Z,13.14
2022-12-26T16:07:22.391Z,13.17
2022-12-26T16:09:55.323Z,13.10
2022-12-26T16:12:25.423Z,13.21
2022-12-26T16:15:25.413Z,13.41
2022-12-26T16:17:52.594Z,13.06
2022-12-26T16:20:45.374Z,11.92
2022-12-26T16:23:16.708Z,12.35
2022-12-26T16:25:51.624Z,12.72
2022-12-26T16:28:27.028Z,12.53
2022-12-26T16:30:54.273Z,12.49
2022-12-26T16:33:23.570Z,11.75
2022-12-26T16:35:57.547Z,12.35
2022-12-26T16:38:32.330Z,12.51
2022-12-26T16:41:00.970Z,12.27
2022-12-26T16:43:34.817Z,10.40
2022-12-26T16:46:06.406Z,10.93
2022-12-26T16:48:38.413Z,11.27
2022-12-26T16:51:13.789Z,11.01
2022-12-26T16:53:40.923Z,11.35
2022-12-26T16:56:28.473Z,11.35
2022-12-26T16:59:06.196Z,11.69
2022-12-26T17:01:34.849Z,11.49
2022-12-26T17:04:17.513Z,11.34
2022-12-26T17:06:51.621Z,11.10
2022-12-26T17:09:19.481Z,11.47
2022-12-26T17:12:03.029Z,11.68
2022-12-26T17:14:37.654Z,11.64
2022-12-26T17:17:28.009Z,11.58
2022-12-26T17:19:57.713Z,11.31
2022-12-26T17:22:32.172Z,11.20
2022-12-26T17:25:17.859Z,11.45
2022-12-26T17:27:45.842Z,11.41
2022-12-26T17:30:29.747Z,10.62
2022-12-26T17:33:03.201Z,10.99
2022-12-26T17:36:21.287Z,11.29
2022-12-26T17:38:26.462Z,11.18
2022-12-26T17:41:04.783Z,10.88
2022-12-26T17:43:39.522Z,10.62
2022-12-26T17:46:09.453Z,11.35
2022-12-26T17:48:36.461Z,11.01
2022-12-26T17:51:09.356Z,11.01
2022-12-26T17:53:42.226Z,10.85
2022-12-26T17:56:18.197Z,10.24
2022-12-26T17:58:45.312Z,10.60
2022-12-26T18:01:17.449Z,9.75
2022-12-26T18:03:47.535Z,9.22
2022-12-26T18:06:17.278Z,10.09
2022-12-26T18:08:44.801Z,10.13
2022-12-26T18:11:13.621Z,10.39
2022-12-26T18:13:41.094Z,9.45
2022-12-26T18:16:10.855Z,9.07
2022-12-26T18:18:43.584Z,9.33
2022-12-26T18:21:13.011Z,10.09
2022-12-26T18:23:41.033Z,10.32
2022-12-26T18:26:17.900Z,10.27
2022-12-26T18:28:45.617Z,10.20
2022-12-26T18:31:16.847Z,9.80
2022-12-26T18:33:44.117Z,9.74
2022-12-26T18:36:17.320Z,10.06
2022-12-26T18:38:44.498Z,9.70
2022-12-26T18:41:20.116Z,9.70
2022-12-26T18:43:48.044Z,9.94
2022-12-26T18:46:23.921Z,10.08
2022-12-26T18:48:54.135Z,9.68
2022-12-26T18:51:21.991Z,9.69
2022-12-26T18:53:49.102Z,9.87
2022-12-26T18:56:19.233Z,9.32
2022-12-26T18:58:51.127Z,9.49
2022-12-26T19:01:21.337Z,9.50
2022-12-26T19:03:49.830Z,9.63
2022-12-26T19:06:25.946Z,9.64
2022-12-26T19:08:53.049Z,9.42
2022-12-26T19:11:20.069Z,9.72
2022-12-26T19:13:47.128Z,9.93
2022-12-26T19:16:14.170Z,9.70
2022-12-26T19:18:41.155Z,9.87
2022-12-26T19:21:13.388Z,9.67
2022-12-26T19:23:40.886Z,9.77
2022-12-26T19:26:17.364Z,9.97
2022-12-26T19:28:45.343Z,9.54
2022-12-26T19:31:15.609Z,9.68
2022-12-26T19:33:43.007Z,9.64
2022-12-26T19:36:10.877Z,9.67
2022-12-26T19:38:38.296Z,9.60
2022-12-26T19:41:07.953Z,9.36
2022-12-26T19:43:34.857Z,9.22
2022-12-26T19:46:03.856Z,9.24
2022-12-26T19:48:32.835Z,9.10
2022-12-26T19:51:11.614Z,8.99
2022-12-26T19:53:40.426Z,9.14
2022-12-26T19:56:17.277Z,9.35
2022-12-26T19:58:45.119Z,8.94
2022-12-26T20:01:16.527Z,9.14
2022-12-26T20:03:44.998Z,9.30
2022-12-26T20:06:18.052Z,9.40
2022-12-26T20:08:46.562Z,9.39
2022-12-26T20:11:17.485Z,9.27
2022-12-26T20:13:45.938Z,9.39
2022-12-26T20:16:45.963Z,9.35
2022-12-26T20:19:06.067Z,9.36
2022-12-26T20:21:33.272Z,9.30
2022-12-26T20:24:03.047Z,9.20
2022-12-26T20:26:30.262Z,8.89
2022-12-26T20:29:03.471Z,8.63
2022-12-26T20:31:32.949Z,7.50
2022-12-26T20:34:00.984Z,8.33
2022-12-26T20:36:34.231Z,8.50
2022-12-26T20:39:05.268Z,8.09
2022-12-26T20:41:34.583Z,8.55
2022-12-26T20:44:01.671Z,8.70
2022-12-26T20:46:36.099Z,7.63
2022-12-26T20:49:04.994Z,7.18
2022-12-26T20:51:37.421Z,6.82
2022-12-26T20:54:09.238Z,7.58
2022-12-26T20:56:37.427Z,7.55
2022-12-26T20:59:05.776Z,7.58
2022-12-26T21:01:32.926Z,7.87
